createdAt,value
2022-09-11T00:01:49.311Z,15.90
2022-09-11T00:04:18.563Z,16.00
2022-09-11T00:06:47.357Z,16.00
2022-09-11T00:09:15.945Z,15.90
2022-09-11T00:11:44.729Z,15.88
2022-09-11T00:14:14.660Z,15.80
2022-09-11T00:16:47.307Z,15.74
2022-09-11T00:19:19.492Z,15.70
2022-09-11T00:21:50.780Z,15.70
2022-09-11T00:24:20.245Z,15.70
2022-09-11T00:26:48.729Z,15.70
2022-09-11T00:29:18.131Z,15.70
2022-09-11T00:31:49.478Z,15.68
2022-09-11T00:34:18.882Z,15.60
2022-09-11T00:36:48.696Z,15.60
2022-09-11T00:39:18.304Z,15.58
2022-09-11T00:41:47.401Z,15.50
2022-09-11T00:44:18.954Z,15.50
2022-09-11T00:46:53.401Z,15.56
2022-09-11T00:49:43.669Z,15.56
2022-09-11T00:52:17.172Z,15.50
2022-09-11T00:55:15.244Z,15.40
2022-09-11T00:57:54.273Z,15.44
2022-09-11T01:00:23.781Z,15.38
2022-09-11T01:02:54.720Z,15.30
2022-09-11T01:05:26.420Z,15.30
2022-09-11T01:07:56.697Z,15.30
2022-09-11T01:10:47.202Z,15.20
2022-09-11T01:13:33.499Z,15.20
2022-09-11T01:16:22.285Z,15.20
2022-09-11T01:19:15.213Z,15.30
2022-09-11T01:22:20.559Z,15.26
2022-09-11T01:24:57.438Z,15.30
2022-09-11T01:27:47.321Z,15.28
2022-09-11T01:30:21.628Z,15.20
2022-09-11T01:34:06.217Z,15.26
2022-09-11T01:36:47.490Z,15.24
2022-09-11T01:39:20.465Z,15.30
2022-09-11T01:42:01.977Z,15.28
2022-09-11T01:44:55.432Z,15.20
2022-09-11T01:47:26.416Z,15.22
2022-09-11T01:50:04.786Z,15.30
2022-09-11T01:52:48.219Z,15.30
2022-09-11T01:55:46.193Z,15.30
2022-09-11T01:58:30.183Z,15.36
2022-09-11T02:01:11.882Z,15.40
2022-09-11T02:03:48.591Z,15.40
2022-09-11T02:06:25.074Z,15.40
2022-09-11T02:09:00.002Z,15.40
2022-09-11T02:11:39.253Z,15.40
2022-09-11T02:14:18.481Z,15.42
2022-09-11T02:17:09.178Z,15.44
2022-09-11T02:19:40.016Z,15.48
2022-09-11T02:22:09.533Z,15.42
2022-09-11T02:24:39.540Z,15.50
2022-09-11T02:27:23.285Z,15.50
2022-09-11T02:29:54.171Z,15.50
2022-09-11T02:32:24.067Z,15.50
2022-09-11T02:34:55.726Z,15.50
2022-09-11T02:37:39.432Z,15.50
2022-09-11T02:40:20.627Z,15.40
2022-09-11T02:43:33.716Z,15.40
2022-09-11T02:46:08.571Z,15.30
2022-09-11T02:49:23.353Z,15.30
2022-09-11T02:52:28.278Z,15.30
2022-09-11T02:55:02.392Z,15.30
2022-09-11T02:58:18.079Z,15.20
2022-09-11T03:00:48.363Z,15.20
2022-09-11T03:03:17.604Z,15.20
2022-09-11T03:05:46.699Z,15.20
2022-09-11T03:08:20.710Z,15.20
2022-09-11T03:10:50.317Z,15.20
2022-09-11T03:13:19.109Z,15.20
2022-09-11T03:15:48.511Z,15.20
2022-09-11T03:18:17.710Z,15.20
2022-09-11T03:20:47.626Z,15.20
2022-09-11T03:23:16.280Z,15.20
2022-09-11T03:25:45.202Z,15.20
2022-09-11T03:28:14.227Z,15.20
2022-09-11T03:30:43.088Z,15.22
2022-09-11T03:33:12.390Z,15.26
2022-09-11T03:35:40.871Z,15.30
2022-09-11T03:38:10.011Z,15.30
2022-09-11T03:40:42.240Z,15.30
2022-09-11T03:43:12.691Z,15.30
2022-09-11T03:45:41.168Z,15.30
2022-09-11T03:48:10.286Z,15.30
2022-09-11T03:50:38.729Z,15.30
2022-09-11T03:53:07.516Z,15.30
2022-09-11T03:55:36.101Z,15.24
2022-09-11T03:58:04.997Z,15.20
2022-09-11T04:00:34.191Z,15.20
2022-09-11T04:03:02.758Z,15.20
2022-09-11T04:05:44.365Z,15.20
2022-09-11T04:08:13.697Z,15.20
2022-09-11T04:10:44.400Z,15.20
2022-09-11T04:13:13.328Z,15.20
2022-09-11T04:15:42.860Z,15.12
2022-09-11T04:18:11.524Z,15.20
2022-09-11T04:20:40.270Z,15.20
2022-09-11T04:23:09.507Z,15.20
2022-09-11T04:25:39.286Z,15.20
2022-09-11T04:28:08.485Z,15.10
2022-09-11T04:30:39.897Z,15.10
2022-09-11T04:33:09.065Z,15.10
2022-09-11T04:35:39.921Z,15.10
2022-09-11T04:38:08.762Z,15.04
2022-09-11T04:40:38.006Z,15.00
2022-09-11T04:43:06.853Z,15.00
2022-09-11T04:45:36.893Z,15.02
2022-09-11T04:48:06.480Z,15.08
2022-09-11T04:50:35.267Z,15.00
2022-09-11T04:53:17.165Z,15.10
2022-09-11T04:55:46.363Z,15.20
2022-09-11T04:58:15.357Z,15.20
2022-09-11T05:00:44.072Z,15.20
2022-09-11T05:03:12.628Z,15.20
2022-09-11T05:05:41.728Z,15.20
2022-09-11T05:08:11.845Z,15.20
2022-09-11T05:10:42.580Z,15.20
2022-09-11T05:13:12.394Z,15.20
2022-09-11T05:15:40.951Z,15.10
2022-09-11T05:18:11.874Z,15.10
2022-09-11T05:20:41.014Z,15.00
2022-09-11T05:23:11.847Z,14.94
2022-09-11T05:25:40.499Z,15.00
2022-09-11T05:28:09.022Z,14.90
2022-09-11T05:30:37.719Z,14.96
2022-09-11T05:33:06.939Z,14.90
2022-09-11T05:35:36.164Z,14.90
2022-09-11T05:38:04.790Z,14.90
2022-09-11T05:40:34.194Z,15.00
2022-09-11T05:43:03.148Z,15.10
2022-09-11T05:45:32.986Z,15.10
2022-09-11T05:48:03.670Z,15.10
2022-09-11T05:50:34.678Z,15.20
2022-09-11T05:53:05.867Z,15.30
2022-09-11T05:55:35.768Z,15.30
2022-09-11T05:58:05.347Z,15.40
2022-09-11T06:00:34.339Z,15.40
2022-09-11T06:03:03.026Z,15.40
2022-09-11T06:05:31.713Z,15.40
2022-09-11T06:08:01.835Z,15.30
2022-09-11T06:10:30.622Z,15.30
2022-09-11T06:12:59.104Z,15.30
2022-09-11T06:15:45.637Z,15.30
2022-09-11T06:18:16.753Z,15.30
2022-09-11T06:20:59.555Z,15.30
2022-09-11T06:23:29.181Z,15.20
2022-09-11T06:26:10.974Z,15.30
2022-09-11T06:28:41.141Z,15.30
2022-09-11T06:31:16.587Z,15.30
2022-09-11T06:33:47.074Z,15.30
2022-09-11T06:36:19.746Z,15.20
2022-09-11T06:38:55.229Z,15.20
2022-09-11T06:41:26.713Z,15.28
2022-09-11T06:43:59.645Z,15.30
2022-09-11T06:46:30.137Z,15.40
2022-09-11T06:49:00.053Z,15.44
2022-09-11T06:51:30.178Z,15.50
2022-09-11T06:54:02.424Z,15.56
2022-09-11T06:56:36.187Z,15.60
2022-09-11T06:59:06.815Z,15.68
2022-09-11T07:01:36.604Z,15.70
2022-09-11T07:04:06.189Z,15.80
2022-09-11T07:06:35.941Z,15.80
2022-09-11T07:09:04.832Z,15.88
2022-09-11T07:11:45.193Z,15.90
2022-09-11T07:14:14.293Z,15.90
2022-09-11T07:16:44.345Z,15.90
2022-09-11T07:19:14.325Z,15.90
2022-09-11T07:21:42.910Z,16.00
2022-09-11T07:24:12.600Z,15.90
2022-09-11T07:26:43.460Z,15.92
2022-09-11T07:29:18.290Z,16.00
2022-09-11T07:31:48.514Z,16.10
2022-09-11T07:34:18.327Z,16.20
2022-09-11T07:36:48.246Z,16.10
2022-09-11T07:39:16.722Z,16.10
2022-09-11T07:41:51.144Z,16.10
2022-09-11T07:44:24.850Z,16.20
2022-09-11T07:46:53.637Z,16.20
2022-09-11T07:49:22.222Z,16.10
2022-09-11T07:51:52.241Z,16.16
2022-09-11T07:54:24.213Z,16.20
2022-09-11T07:56:53.301Z,16.26
2022-09-11T07:59:23.113Z,16.30
2022-09-11T08:01:54.711Z,16.30
2022-09-11T08:04:23.562Z,16.30
2022-09-11T08:06:52.572Z,16.30
2022-09-11T08:09:29.025Z,16.38
2022-09-11T08:12:01.193Z,16.40
2022-09-11T08:14:30.083Z,16.50
2022-09-11T08:17:02.661Z,16.60
2022-09-11T08:19:33.088Z,16.60
2022-09-11T08:22:03.316Z,16.70
2022-09-11T08:24:36.202Z,16.78
2022-09-11T08:27:07.244Z,16.80
2022-09-11T08:29:38.700Z,16.80
2022-09-11T08:32:07.585Z,16.82
2022-09-11T08:34:38.933Z,16.90
2022-09-11T08:37:07.723Z,16.90
2022-09-11T08:39:36.859Z,17.00
2022-09-11T08:42:16.722Z,17.10
2022-09-11T08:44:54.365Z,17.76
2022-09-11T08:47:40.673Z,18.54
2022-09-11T08:50:42.528Z,19.38
2022-09-11T08:53:19.715Z,20.30
2022-09-11T08:56:02.138Z,20.50
2022-09-11T08:58:49.344Z,20.82
2022-09-11T09:01:37.788Z,20.90
2022-09-11T09:05:00.758Z,20.90
2022-09-11T09:07:47.669Z,20.68
2022-09-11T09:10:43.023Z,20.40
2022-09-11T09:13:23.749Z,20.10
2022-09-11T09:16:03.015Z,19.90
2022-09-11T09:19:03.619Z,19.86
2022-09-11T09:22:18.079Z,20.00
2022-09-11T09:24:53.831Z,20.30
2022-09-11T09:27:32.080Z,21.10
2022-09-11T09:30:13.734Z,21.74
2022-09-11T09:32:59.115Z,22.36
2022-09-11T09:35:43.399Z,22.80
2022-09-11T09:38:23.843Z,23.10
2022-09-11T09:41:02.174Z,23.10
2022-09-11T09:44:24.515Z,23.10
2022-09-11T09:46:59.638Z,22.54
2022-09-11T09:49:34.534Z,22.10
2022-09-11T09:52:24.653Z,21.80
2022-09-11T09:55:13.914Z,21.40
2022-09-11T09:57:43.624Z,21.00
2022-09-11T10:00:17.745Z,20.90
2022-09-11T10:02:49.499Z,21.28
2022-09-11T10:05:30.843Z,21.50
2022-09-11T10:08:38.077Z,21.86
2022-09-11T10:11:11.403Z,22.20
2022-09-11T10:13:54.237Z,22.00
2022-09-11T10:16:28.423Z,21.90
2022-09-11T10:18:56.987Z,21.70
2022-09-11T10:21:35.607Z,21.50
2022-09-11T10:24:10.232Z,21.30
2022-09-11T10:26:46.412Z,21.10
2022-09-11T10:29:25.130Z,21.00
2022-09-11T10:31:58.125Z,20.80
2022-09-11T10:34:34.891Z,20.50
2022-09-11T10:37:16.368Z,20.40
2022-09-11T10:39:47.490Z,20.30
2022-09-11T10:42:26.143Z,20.40
2022-09-11T10:45:06.394Z,20.50
2022-09-11T10:47:34.974Z,20.76
2022-09-11T10:50:27.208Z,21.00
2022-09-11T10:52:58.872Z,21.52
2022-09-11T10:55:36.738Z,21.94
2022-09-11T10:58:17.463Z,22.30
2022-09-11T11:00:46.025Z,22.60
2022-09-11T11:03:22.323Z,22.80
2022-09-11T11:06:22.312Z,22.88
2022-09-11T11:09:06.470Z,22.60
2022-09-11T11:11:56.447Z,22.50
2022-09-11T11:14:55.445Z,22.20
2022-09-11T11:17:39.083Z,22.00
2022-09-11T11:20:54.991Z,22.00
2022-09-11T11:23:33.595Z,22.30
2022-09-11T11:26:23.082Z,22.40
2022-09-11T11:29:00.772Z,22.50
2022-09-11T11:32:47.904Z,22.60
2022-09-11T11:35:34.193Z,22.60
2022-09-11T11:38:20.493Z,22.60
2022-09-11T11:40:57.679Z,22.60
2022-09-11T11:43:32.557Z,22.60
2022-09-11T11:46:04.889Z,22.50
2022-09-11T11:48:56.304Z,22.30
2022-09-11T11:51:33.083Z,22.20
2022-09-11T11:54:09.856Z,22.20
2022-09-11T11:57:08.239Z,22.30
2022-09-11T11:59:45.324Z,22.30
2022-09-11T12:02:53.456Z,22.30
2022-09-11T12:05:33.212Z,22.50
2022-09-11T12:08:02.486Z,22.50
2022-09-11T12:10:38.415Z,22.50
2022-09-11T12:13:20.267Z,22.40
2022-09-11T12:16:34.043Z,22.20
2022-09-11T12:19:22.097Z,21.90
2022-09-11T12:22:06.909Z,21.70
2022-09-11T12:24:59.129Z,21.40
2022-09-11T12:27:34.628Z,21.20
2022-09-11T12:30:23.460Z,21.30
2022-09-11T12:32:55.496Z,21.40
2022-09-11T12:35:52.376Z,21.58
2022-09-11T12:38:40.745Z,21.80
2022-09-11T12:41:14.379Z,22.00
2022-09-11T12:43:42.757Z,22.20
2022-09-11T12:46:21.702Z,22.30
2022-09-11T12:49:20.395Z,22.50
2022-09-11T12:51:55.282Z,22.70
2022-09-11T12:54:41.015Z,22.70
2022-09-11T12:57:35.608Z,22.60
2022-09-11T13:00:20.573Z,22.56
2022-09-11T13:02:57.958Z,22.40
2022-09-11T13:05:40.065Z,22.32
2022-09-11T13:08:22.601Z,22.04
2022-09-11T13:10:51.570Z,21.62
2022-09-11T13:13:37.767Z,21.40
2022-09-11T13:16:19.443Z,21.20
2022-09-11T13:18:48.658Z,21.10
2022-09-11T13:21:21.121Z,21.10
2022-09-11T13:23:53.205Z,21.10
2022-09-11T13:26:32.438Z,21.10
2022-09-11T13:29:02.149Z,21.20
2022-09-11T13:31:38.757Z,21.30
2022-09-11T13:34:16.095Z,21.48
2022-09-11T13:36:47.395Z,21.60
2022-09-11T13:39:17.620Z,21.80
2022-09-11T13:41:51.039Z,21.80
2022-09-11T13:44:49.540Z,21.80
2022-09-11T13:47:31.618Z,21.90
2022-09-11T13:50:06.527Z,21.98
2022-09-11T13:52:36.645Z,21.90
2022-09-11T13:55:27.870Z,22.00
2022-09-11T13:58:02.417Z,21.90
2022-09-11T14:00:37.805Z,22.00
2022-09-11T14:03:20.434Z,22.00
2022-09-11T14:05:56.931Z,21.80
2022-09-11T14:08:44.960Z,21.80
2022-09-11T14:11:28.458Z,21.90
2022-09-11T14:14:26.120Z,22.00
2022-09-11T14:17:01.710Z,22.00
2022-09-11T14:19:35.286Z,22.10
2022-09-11T14:22:16.162Z,22.00
2022-09-11T14:25:05.314Z,21.90
2022-09-11T14:27:38.258Z,21.80
2022-09-11T14:30:34.695Z,21.76
2022-09-11T14:33:24.826Z,21.70
2022-09-11T14:36:07.681Z,21.80
2022-09-11T14:38:38.586Z,21.80
2022-09-11T14:41:07.885Z,21.80
2022-09-11T14:43:38.928Z,21.80
2022-09-11T14:46:07.645Z,21.80
2022-09-11T14:48:36.510Z,21.70
2022-09-11T14:51:11.245Z,21.78
2022-09-11T14:53:43.734Z,21.76
2022-09-11T14:56:12.500Z,21.70
2022-09-11T14:58:41.191Z,21.60
2022-09-11T15:01:14.127Z,21.50
2022-09-11T15:03:42.784Z,21.40
2022-09-11T15:06:20.692Z,21.40
2022-09-11T15:08:50.286Z,21.40
2022-09-11T15:11:18.752Z,21.20
2022-09-11T15:14:13.533Z,21.20
2022-09-11T15:16:36.708Z,21.10
2022-09-11T15:19:05.792Z,20.90
2022-09-11T15:21:37.562Z,20.80
2022-09-11T15:24:06.807Z,20.70
2022-09-11T15:26:37.088Z,20.60
2022-09-11T15:29:10.178Z,20.50
2022-09-11T15:31:39.851Z,20.30
2022-09-11T15:34:10.025Z,20.20
2022-09-11T15:36:38.869Z,20.10
2022-09-11T15:39:13.477Z,20.00
2022-09-11T15:41:45.556Z,19.90
2022-09-11T15:44:22.409Z,19.86
2022-09-11T15:46:54.238Z,19.60
2022-09-11T15:49:24.533Z,19.40
2022-09-11T15:51:54.574Z,19.20
2022-09-11T15:54:26.301Z,19.04
2022-09-11T15:56:55.633Z,18.90
2022-09-11T15:59:24.117Z,18.80
2022-09-11T16:01:53.075Z,18.68
2022-09-11T16:04:23.230Z,18.50
2022-09-11T16:06:53.967Z,18.36
2022-09-11T16:09:28.891Z,18.30
2022-09-11T16:11:59.570Z,18.20
2022-09-11T16:14:33.360Z,18.10
2022-09-11T16:17:03.717Z,18.10
2022-09-11T16:19:33.172Z,18.10
2022-09-11T16:22:04.848Z,18.10
2022-09-11T16:24:37.907Z,18.00
2022-09-11T16:27:09.942Z,18.06
2022-09-11T16:32:29.477Z,18.10
2022-09-11T16:34:59.880Z,18.10
2022-09-11T16:37:29.203Z,18.12
2022-09-11T16:39:58.347Z,18.18
2022-09-11T16:42:26.884Z,18.10
2022-09-11T16:44:55.481Z,18.10
2022-09-11T16:47:24.464Z,18.20
2022-09-11T16:50:09.145Z,18.20
2022-09-11T16:52:39.596Z,18.14
2022-09-11T16:55:11.219Z,18.10
2022-09-11T16:57:39.897Z,18.10
2022-09-11T17:00:11.012Z,18.20
2022-09-11T17:02:41.569Z,18.20
2022-09-11T17:05:10.255Z,18.30
2022-09-11T17:07:39.386Z,18.20
2022-09-11T17:10:09.319Z,18.20
2022-09-11T17:12:37.851Z,18.20
2022-09-11T17:15:07.955Z,18.20
2022-09-11T17:17:38.245Z,18.20
2022-09-11T17:20:10.108Z,18.20
2022-09-11T17:22:40.308Z,18.20
2022-09-11T17:25:09.272Z,18.20
2022-09-11T17:27:38.065Z,18.18
2022-09-11T17:30:08.168Z,18.20
2022-09-11T17:32:37.385Z,18.10
2022-09-11T17:35:06.491Z,18.10
2022-09-11T17:37:35.881Z,18.10
2022-09-11T17:40:07.284Z,18.06
2022-09-11T17:42:36.143Z,18.00
2022-09-11T17:45:06.087Z,18.00
2022-09-11T17:47:35.137Z,18.00
2022-09-11T17:50:04.404Z,17.90
2022-09-11T17:52:37.115Z,17.90
2022-09-11T17:55:06.421Z,17.84
2022-09-11T17:57:35.312Z,17.80
2022-09-11T18:00:05.881Z,17.80
2022-09-11T18:02:40.877Z,17.80
2022-09-11T18:05:09.688Z,17.80
2022-09-11T18:07:39.376Z,17.70
2022-09-11T18:10:09.090Z,17.70
2022-09-11T18:12:37.670Z,17.70
2022-09-11T18:15:07.723Z,17.70
2022-09-11T18:17:36.170Z,17.60
2022-09-11T18:20:06.554Z,17.60
2022-09-11T18:22:39.731Z,17.60
2022-09-11T18:25:09.892Z,17.50
2022-09-11T18:27:39.820Z,17.50
2022-09-11T18:30:09.844Z,17.50
2022-09-11T18:32:39.917Z,17.50
2022-09-11T18:35:09.827Z,17.42
2022-09-11T18:37:38.981Z,17.40
2022-09-11T18:40:08.578Z,17.30
2022-09-11T18:42:41.166Z,17.30
2022-09-11T18:45:11.228Z,17.30
2022-09-11T18:47:40.727Z,17.30
2022-09-11T18:50:10.194Z,17.30
2022-09-11T18:52:38.675Z,17.32
2022-09-11T18:55:08.078Z,17.40
2022-09-11T18:57:41.203Z,17.40
2022-09-11T19:00:17.319Z,17.40
2022-09-11T19:02:47.987Z,17.40
2022-09-11T19:05:17.501Z,17.40
2022-09-11T19:07:48.106Z,17.40
2022-09-11T19:10:17.918Z,17.40
2022-09-11T19:12:49.283Z,17.40
2022-09-11T19:15:17.967Z,17.40
2022-09-11T19:17:47.966Z,17.30
2022-09-11T19:20:20.142Z,17.32
2022-09-11T19:22:48.928Z,17.30
2022-09-11T19:25:18.025Z,17.30
2022-09-11T19:27:46.814Z,17.30
2022-09-11T19:30:16.537Z,17.40
2022-09-11T19:32:45.107Z,17.30
2022-09-11T19:35:13.696Z,17.30
2022-09-11T19:37:42.379Z,17.40
2022-09-11T19:40:11.389Z,17.30
2022-09-11T19:42:40.373Z,17.30
2022-09-11T19:45:09.565Z,17.30
2022-09-11T19:47:38.171Z,17.30
2022-09-11T19:50:08.819Z,17.24
2022-09-11T19:52:37.264Z,17.30
2022-09-11T19:55:06.566Z,17.20
2022-09-11T19:57:35.150Z,17.20
2022-09-11T20:00:05.202Z,17.20
2022-09-11T20:02:34.164Z,17.20
2022-09-11T20:05:02.644Z,17.20
2022-09-11T20:07:31.664Z,17.10
2022-09-11T20:10:00.532Z,17.10
2022-09-11T20:12:37.218Z,17.16
2022-09-11T20:15:07.737Z,17.20
2022-09-11T20:17:36.318Z,17.20
2022-09-11T20:20:07.096Z,17.20
2022-09-11T20:22:35.643Z,17.20
2022-09-11T20:25:04.940Z,17.20
2022-09-11T20:27:34.649Z,17.10
2022-09-11T20:30:03.336Z,17.10
2022-09-11T20:32:32.149Z,17.00
2022-09-11T20:35:01.428Z,17.00
2022-09-11T20:37:30.114Z,16.96
2022-09-11T20:40:00.428Z,16.90
2022-09-11T20:42:29.333Z,16.86
2022-09-11T20:44:58.018Z,16.80
2022-09-11T20:47:26.807Z,16.80
2022-09-11T20:49:55.390Z,16.80
2022-09-11T20:52:23.975Z,16.80
2022-09-11T20:54:54.609Z,16.70
2022-09-11T20:57:23.089Z,16.70
2022-09-11T20:59:51.572Z,16.70
2022-09-11T21:02:20.293Z,16.70
2022-09-11T21:04:49.768Z,16.64
2022-09-11T21:07:18.366Z,16.60
2022-09-11T21:09:48.060Z,16.60
2022-09-11T21:12:16.757Z,16.60
2022-09-11T21:14:46.047Z,16.50
2022-09-11T21:17:14.837Z,16.50
2022-09-11T21:19:43.728Z,16.48
2022-09-11T21:22:12.513Z,16.40
2022-09-11T21:24:43.356Z,16.40
2022-09-11T21:27:11.939Z,16.40
2022-09-11T21:29:40.645Z,16.30
2022-09-11T21:32:10.585Z,16.30
2022-09-11T21:34:39.126Z,16.30
2022-09-11T21:37:07.710Z,16.30
2022-09-11T21:39:37.597Z,16.20
2022-09-11T21:42:11.630Z,16.20
2022-09-11T21:44:40.529Z,16.12
2022-09-11T21:47:09.011Z,16.10
2022-09-11T21:49:37.700Z,16.10
2022-09-11T21:52:06.286Z,16.10
2022-09-11T21:54:34.919Z,16.10
2022-09-11T21:57:03.555Z,16.02
2022-09-11T21:59:32.242Z,16.00
2022-09-11T22:02:01.693Z,16.00
2022-09-11T22:04:31.361Z,16.00
2022-09-11T22:07:00.656Z,16.00
2022-09-11T22:09:30.265Z,16.00
2022-09-11T22:12:00.052Z,16.00
2022-09-11T22:14:29.075Z,16.00
2022-09-11T22:16:58.229Z,16.00
2022-09-11T22:19:26.958Z,16.00
2022-09-11T22:21:56.568Z,16.00
2022-09-11T22:24:25.051Z,16.00
2022-09-11T22:26:53.641Z,16.00
2022-09-11T22:29:22.217Z,16.00
2022-09-11T22:31:50.730Z,16.00
2022-09-11T22:34:19.283Z,16.00
2022-09-11T22:36:48.380Z,16.00
2022-09-11T22:39:16.864Z,16.00
2022-09-11T22:41:46.267Z,16.00
2022-09-11T22:44:14.851Z,16.00
2022-09-11T22:46:46.977Z,16.00
2022-09-11T22:49:17.447Z,15.90
2022-09-11T22:51:45.930Z,15.90
2022-09-11T22:54:15.028Z,15.90
2022-09-11T22:56:44.325Z,15.80
2022-09-11T22:59:13.160Z,15.80
2022-09-11T23:01:41.737Z,15.80
2022-09-11T23:04:10.487Z,15.80
2022-09-11T23:06:57.606Z,15.80
2022-09-11T23:09:26.089Z,15.80
2022-09-11T23:11:56.005Z,15.80
2022-09-11T23:14:24.605Z,15.80
2022-09-11T23:16:53.685Z,15.82
2022-09-11T23:19:23.132Z,15.80
2022-09-11T23:21:52.086Z,15.80
2022-09-11T23:24:21.281Z,15.84
2022-09-11T23:26:50.173Z,15.90
2022-09-11T23:29:18.758Z,15.90
2022-09-11T23:31:48.099Z,15.90
2022-09-11T23:34:17.715Z,15.84
2022-09-11T23:36:46.251Z,15.90
2022-09-11T23:39:15.348Z,15.90
2022-09-11T23:41:44.138Z,15.90
2022-09-11T23:44:12.824Z,15.90
2022-09-11T23:46:41.515Z,15.90
2022-09-11T23:49:13.474Z,15.90
2022-09-11T23:51:42.879Z,15.90
2022-09-11T23:54:11.365Z,15.90
2022-09-11T23:56:39.843Z,15.90
2022-09-11T23:59:08.427Z,15.80
